Terminal Aerodrome Forecast
Issued by NWS

Home | Current Version | Previous Version | Text Only | Print | Product List | Glossary On
Versions: 1 2 3 4 5 6 7 8 9 10 11 12 13
000
FTUS44 KLZK 230900 AAA
TAFLLQ
TAF AMD
KLLQ 230943Z 2310/2406 09004KT P6SM SCT035
      TEMPO 2310/2314 BKN035
     FM231400 11006KT P6SM SCT040 BKN150
     FM240000 12008KT P6SM SCT150 BKN250=

USA.gov is the U.S. government's official web portal to all federal, state and local government web resources and services.